Time;durP1;ratioP1;P1;durP2;ratioP2;P2;SDS_P1;SDS_P2;PMS_P1;PMS_P2;Temp;Humidity;BMP_temperature;BMP_pressure;BME280_temperature;BME280_humidity;BME280_pressure;Samples;Min_cycle;Max_cycle;Signal;HPM_P1;HPM_P2
2022/10/11 00:02:04;;;;;;;14.98;7.82;;;;;;;14.32;49.21;94215.47;4990119;28;20463;-87
2022/10/11 00:04:43;;;;;;;;;;;;;;;;;;;;;
2022/10/11 00:07:09;;;;;;;11.07;8.38;;;;;;;15.23;49.64;94362.63;4991168;28;20029;-87
2022/10/11 00:09:37;;;;;;;10.60;8.40;;;;;;;14.51;49.43;94232.63;4990037;28;20035;-87
2022/10/11 00:12:05;;;;;;;13.38;8.38;;;;;;;16.14;49.55;94479.63;4991381;28;20026;-86
2022/10/11 00:14:32;;;;;;;10.13;7.85;;;;;;;15.35;49.27;94357.31;4988268;28;20796;-86
2022/10/11 00:16:58;;;;;;;12.13;8.40;;;;;;;14.68;49.49;94255.03;4991990;28;20030;-87
2022/10/11 00:19:24;;;;;;;13.40;9.20;;;;;;;15.13;49.30;94338.13;4991723;28;20632;-87
2022/10/11 00:21:49;;;;;;;14.23;8.60;;;;;;;15.44;49.13;94381.41;4989552;28;20080;-87
2022/10/11 00:24:15;;;;;;;11.07;8.00;;;;;;;15.10;48.83;94315.47;4980568;28;20026;-86
2022/10/11 00:26:42;;;;;;;12.55;8.63;;;;;;;16.27;49.01;94489.28;4989222;28;21043;-87
2022/10/11 00:29:07;;;;;;;10.93;8.77;;;;;;;15.49;48.78;94367.81;4990239;28;20088;-87
2022/10/11 00:31:33;;;;;;;13.02;9.57;;;;;;;15.77;48.78;94402.84;4977276;28;20034;-87
2022/10/11 00:33:58;;;;;;;19.23;13.35;;;;;;;14.62;48.67;94218.88;4993013;28;20026;-86
2022/10/11 00:36:24;;;;;;;19.25;11.60;;;;;;;15.23;48.79;94327.00;4993780;28;20050;-87
2022/10/11 00:38:50;;;;;;;18.10;11.65;;;;;;;16.33;48.67;94489.09;4990316;28;20054;-87
2022/10/11 00:41:19;;;;;;;27.40;16.23;;;;;;;15.28;48.46;94324.91;4992357;28;20033;-87
2022/10/11 00:43:55;;;;;;;17.55;11.88;;;;;;;16.33;48.47;94493.34;4989120;28;20651;-87
2022/10/11 00:46:26;;;;;;;15.18;11.70;;;;;;;14.28;48.27;94158.34;4972719;28;20026;-86
2022/10/11 00:49:17;;;;;;;17.52;12.98;;;;;;;16.36;48.51;94469.63;4981763;28;20116;-87
2022/10/11 00:51:49;;;;;;;14.90;11.45;;;;;;;15.77;48.31;94390.22;4971088;28;20030;-86
2022/10/11 00:54:19;;;;;;;18.20;11.13;;;;;;;15.74;48.32;94392.78;4973832;28;20026;-86
2022/10/11 00:56:50;;;;;;;16.52;10.50;;;;;;;15.46;48.25;94347.78;4990310;28;20030;-87
2022/10/11 00:59:20;;;;;;;16.55;10.65;;;;;;;15.60;48.49;94385.00;4973045;28;20024;-87
2022/10/11 01:01:46;;;;;;;18.20;10.88;;;;;;;14.93;48.61;94278.13;4990411;28;20736;-87
2022/10/11 01:04:11;;;;;;;12.77;9.43;;;;;;;15.60;48.46;94389.59;4978226;28;20029;-87
2022/10/11 01:06:37;;;;;;;12.55;9.27;;;;;;;16.13;48.40;94464.66;4989853;28;20025;-87
2022/10/11 01:09:03;;;;;;;16.58;9.90;;;;;;;15.92;48.36;94439.78;4986047;28;20125;-87
2022/10/11 01:11:30;;;;;;;15.35;10.50;;;;;;;14.51;48.33;94232.63;4971686;28;20459;-87
2022/10/11 01:14:18;;;;;;;20.15;12.82;;;;;;;16.18;48.35;94480.50;4977537;28;20032;-87
2022/10/11 01:16:56;;;;;;;15.93;11.48;;;;;;;15.53;48.38;94381.31;4991995;28;20037;-87
2022/10/11 01:19:49;;;;;;;17.33;11.25;;;;;;;16.14;48.53;94474.25;4959057;28;20109;-86
2022/10/11 01:22:27;;;;;;;19.48;10.13;;;;;;;16.00;48.86;94470.28;4970908;28;20192;-87
2022/10/11 01:24:55;;;;;;;13.77;10.60;;;;;;;16.03;48.95;94466.97;4979981;28;20062;-86
2022/10/11 01:27:33;;;;;;;15.38;11.20;;;;;;;16.06;48.76;94474.34;4972599;28;20018;-87
2022/10/11 01:30:15;;;;;;;17.75;11.25;;;;;;;15.53;48.94;94406.22;4990702;28;20018;-87
2022/10/11 01:33:02;;;;;;;17.35;11.95;;;;;;;15.96;48.96;94467.50;5002828;28;20033;-86
2022/10/11 01:35:48;;;;;;;15.27;11.60;;;;;;;15.89;49.10;94468.03;5002478;28;20551;-87
2022/10/11 01:38:26;;;;;;;16.13;11.55;;;;;;;15.88;49.24;94466.47;4999949;28;20072;-86
2022/10/11 01:41:08;;;;;;;18.13;11.77;;;;;;;15.37;49.03;94389.16;4975308;28;20266;-86
2022/10/11 01:43:36;;;;;;;16.25;10.90;;;;;;;15.21;49.54;94348.78;4982754;28;20037;-87
2022/10/11 01:46:02;;;;;;;13.98;10.38;;;;;;;14.83;49.08;94291.91;4992257;28;20014;-85
2022/10/11 01:48:28;;;;;;;19.85;11.50;;;;;;;14.80;49.05;94292.56;4994145;28;20034;-87
2022/10/11 01:51:12;;;;;;;17.50;10.45;;;;;;;14.79;49.02;94289.09;4993813;28;20546;-86
2022/10/11 01:54:08;;;;;;;17.10;10.23;;;;;;;15.95;49.06;94465.13;4993713;28;20085;-87
2022/10/11 01:56:36;;;;;;;18.70;11.50;;;;;;;15.85;49.07;94459.06;4978408;28;20030;-86
2022/10/11 01:59:30;;;;;;;19.13;12.10;;;;;;;15.90;49.03;94458.09;4975655;28;20058;-87
2022/10/11 02:02:33;;;;;;;17.70;11.18;;;;;;;15.87;49.20;94464.13;4976254;28;20492;-86
2022/10/11 02:05:25;;;;;;;16.80;10.90;;;;;;;15.77;49.44;94453.81;4993946;28;20057;-87
2022/10/11 02:08:41;;;;;;;13.82;10.35;;;;;;;13.66;49.02;94133.16;4975114;28;20109;-87
2022/10/11 02:11:32;;;;;;;13.18;9.98;;;;;;;13.83;49.18;94160.91;4990834;28;20041;-87
2022/10/11 02:14:09;;;;;;;18.35;10.77;;;;;;;14.68;49.43;94284.47;4986879;28;20038;-87
2022/10/11 02:16:42;;;;;;;14.80;10.02;;;;;;;15.73;49.26;94464.41;4989691;28;20053;-87
2022/10/11 02:19:11;;;;;;;31.40;13.60;;;;;;;15.69;49.74;94452.00;4974718;28;20083;-87
2022/10/11 02:21:39;;;;;;;53.88;21.13;;;;;;;14.61;49.61;94295.72;4980600;28;20134;-86
2022/10/11 02:24:17;;;;;;;68.75;23.50;;;;;;;15.23;49.85;94405.50;4992870;28;20022;-86
2022/10/11 02:26:51;;;;;;;75.40;24.48;;;;;;;14.88;49.85;94350.63;4975109;28;20026;-87
2022/10/11 02:29:19;;;;;;;59.17;22.23;;;;;;;15.54;49.76;94449.91;4983701;28;20032;-86
2022/10/11 02:31:46;;;;;;;52.80;19.08;;;;;;;14.56;49.97;94296.69;4993680;28;20022;-87
2022/10/11 02:34:15;;;;;;;42.70;17.50;;;;;;;15.54;49.87;94449.91;4993561;28;20024;-87
2022/10/11 02:36:56;;;;;;;51.60;19.20;;;;;;;15.23;49.67;94394.00;4977449;28;20040;-86
2022/10/11 02:39:33;;;;;;;71.30;23.88;;;;;;;13.84;49.68;94181.94;4989945;28;20753;-87
2022/10/11 02:42:02;;;;;;;182.70;50.78;;;;;;;14.23;49.93;94247.59;4980028;28;20029;-86
2022/10/11 02:44:34;;;;;;;225.07;59.65;;;;;;;15.45;49.87;94448.06;4991959;28;20026;-86
2022/10/11 02:47:09;;;;;;;207.18;57.22;;;;;;;15.25;50.14;94422.06;4993461;28;20131;-86
2022/10/11 02:49:38;;;;;;;255.52;61.42;;;;;;;15.41;50.50;94457.84;4991350;28;20041;-86
2022/10/11 02:52:07;;;;;;;235.20;60.00;;;;;;;13.81;50.43;94208.53;4992349;28;20026;-86
2022/10/11 02:54:33;;;;;;;212.00;52.88;;;;;;;13.33;50.18;94119.66;4994850;28;20184;-86
2022/10/11 02:56:58;;;;;;;163.20;44.45;;;;;;;15.22;50.65;94433.41;4990691;28;20538;-86
2022/10/11 02:59:24;;;;;;;70.32;24.67;;;;;;;15.06;50.44;94402.94;4994043;28;20029;-87
2022/10/11 03:01:50;;;;;;;49.42;17.77;;;;;;;13.94;50.60;94236.94;4990680;28;20329;-87
2022/10/11 03:04:15;;;;;;;42.17;16.05;;;;;;;14.72;50.84;94357.66;4975015;28;20026;-86
2022/10/11 03:06:40;;;;;;;25.35;13.27;;;;;;;14.13;50.73;94250.69;4990419;28;20045;-86
2022/10/11 03:09:06;;;;;;;25.63;12.77;;;;;;;13.56;51.14;94194.19;4981801;28;20034;-87
2022/10/11 03:11:31;;;;;;;27.67;11.75;;;;;;;14.81;51.14;94377.94;4991042;28;20174;-87
2022/10/11 03:13:57;;;;;;;21.73;11.25;;;;;;;15.20;51.31;94435.66;4991001;28;20073;-86
2022/10/11 03:16:22;;;;;;;17.70;10.55;;;;;;;14.51;51.34;94333.53;4992038;28;20073;-86
2022/10/11 03:18:48;;;;;;;16.80;11.55;;;;;;;13.38;51.12;94153.41;4980167;28;20029;-86
2022/10/11 03:21:49;;;;;;;19.80;11.55;;;;;;;13.99;51.15;94247.44;4991234;28;20101;-86
2022/10/11 03:24:20;;;;;;;20.33;10.63;;;;;;;14.28;51.33;94308.94;4990849;28;20045;-86
2022/10/11 03:26:48;;;;;;;18.85;10.95;;;;;;;15.04;51.43;94421.25;4993724;28;20030;-87
2022/10/11 03:29:22;;;;;;;17.98;11.13;;;;;;;14.24;51.45;94301.91;4974207;28;20032;-87
2022/10/11 03:31:59;;;;;;;18.40;10.25;;;;;;;14.87;52.04;94429.38;4978567;28;21346;-87
2022/10/11 03:34:28;;;;;;;16.20;9.85;;;;;;;14.43;51.61;94337.81;4978955;28;20057;-87
2022/10/11 03:36:53;;;;;;;16.98;9.93;;;;;;;14.19;51.86;94300.19;4975111;28;20496;-87
2022/10/11 03:39:19;;;;;;;21.92;9.90;;;;;;;13.94;51.59;94261.00;4979855;28;20574;-86
2022/10/11 03:41:44;;;;;;;17.17;10.23;;;;;;;14.96;51.75;94406.03;4990979;28;20486;-87
2022/10/11 03:44:10;;;;;;;11.10;9.35;;;;;;;14.43;52.02;94324.44;4991308;28;20029;-86
2022/10/11 03:46:35;;;;;;;13.27;9.75;;;;;;;14.90;51.77;94400.09;4990269;28;20547;-86
2022/10/11 03:49:03;;;;;;;15.40;9.30;;;;;;;15.03;51.92;94417.00;4976463;28;20538;-87
2022/10/11 03:51:42;;;;;;;;;;;;;;;;;;;;;
2022/10/11 03:54:08;;;;;;;14.77;9.52;;;;;;;13.96;51.61;94235.50;4987228;28;20519;-87
2022/10/11 03:56:33;;;;;;;13.77;9.80;;;;;;;13.94;51.73;94228.91;4989480;28;20757;-86
2022/10/11 03:59:02;;;;;;;13.80;9.90;;;;;;;13.26;51.61;94126.59;4990784;28;20032;-87
2022/10/11 04:01:36;;;;;;;17.33;10.65;;;;;;;13.91;51.65;94235.69;4991222;28;20507;-87
2022/10/11 04:04:04;;;;;;;11.95;9.82;;;;;;;13.15;51.60;94109.38;4973551;28;20069;-86
2022/10/11 04:06:31;;;;;;;14.10;10.82;;;;;;;14.99;52.03;94402.69;4976165;28;20408;-86
2022/10/11 04:08:59;;;;;;;18.00;11.65;;;;;;;13.79;52.20;94243.63;4971169;28;20138;-87
2022/10/11 04:11:51;;;;;;;17.08;10.73;;;;;;;14.83;52.69;94421.22;4990460;28;20026;-86
2022/10/11 04:14:31;;;;;;;15.85;10.98;;;;;;;14.21;52.50;94308.69;4989157;28;20480;-86
2022/10/11 04:17:00;;;;;;;19.38;10.13;;;;;;;14.26;52.53;94331.78;4978746;28;20258;-86
2022/10/11 04:19:41;;;;;;;17.80;10.82;;;;;;;12.91;52.44;94106.50;4988309;28;20128;-87
2022/10/11 04:22:07;;;;;;;17.13;12.43;;;;;;;14.55;52.46;94371.97;4991362;28;20041;-87
2022/10/11 04:24:32;;;;;;;17.38;10.88;;;;;;;14.12;52.49;94305.28;4976669;28;20026;-85
2022/10/11 04:26:58;;;;;;;15.07;11.45;;;;;;;14.00;52.32;94276.53;4994069;28;20037;-86
2022/10/11 04:29:26;;;;;;;20.77;13.10;;;;;;;14.65;52.34;94382.28;4972054;28;20505;-87
2022/10/11 04:31:52;;;;;;;22.52;15.05;;;;;;;14.19;52.15;94303.66;4991069;28;20307;-87
2022/10/11 04:34:17;;;;;;;17.23;12.43;;;;;;;14.62;52.23;94377.56;4991050;28;20026;-87
2022/10/11 04:36:43;;;;;;;22.75;12.05;;;;;;;14.86;52.26;94406.41;4981818;28;20052;-86
2022/10/11 04:39:08;;;;;;;18.65;11.57;;;;;;;14.40;52.03;94322.41;4980543;28;20046;-86
2022/10/11 04:41:34;;;;;;;17.17;12.55;;;;;;;13.07;52.02;94131.53;4989937;28;20057;-86
2022/10/11 04:44:02;;;;;;;20.23;14.30;;;;;;;13.09;52.14;94132.03;4977266;28;20121;-86
2022/10/11 04:46:28;;;;;;;26.75;15.88;;;;;;;14.82;52.67;94413.50;4990319;28;20014;-86
2022/10/11 04:48:53;;;;;;;22.50;13.10;;;;;;;14.82;52.25;94408.16;4991273;28;20037;-86
2022/10/11 04:51:19;;;;;;;19.13;12.40;;;;;;;14.82;52.56;94413.50;4976326;28;20366;-86
2022/10/11 04:53:46;;;;;;;23.30;13.75;;;;;;;14.83;52.69;94420.44;4990886;28;20026;-86
2022/10/11 04:56:13;;;;;;;19.58;13.25;;;;;;;13.88;52.75;94278.34;4991021;28;20136;-87
2022/10/11 04:58:40;;;;;;;23.25;13.10;;;;;;;12.97;52.51;94118.53;4991103;28;20029;-87
2022/10/11 05:01:06;;;;;;;20.52;12.73;;;;;;;13.68;52.37;94232.53;4972624;28;20030;-86
2022/10/11 05:03:35;;;;;;;21.42;14.43;;;;;;;14.89;52.42;94424.50;4990750;28;20029;-87
2022/10/11 05:06:09;;;;;;;21.27;12.98;;;;;;;14.32;52.21;94330.50;4990515;28;20464;-87
2022/10/11 05:08:35;;;;;;;21.67;14.57;;;;;;;14.56;52.41;94373.53;4992627;28;20092;-86
2022/10/11 05:11:17;;;;;;;20.73;13.48;;;;;;;13.50;52.36;94211.50;4994049;28;20033;-86
2022/10/11 05:13:43;;;;;;;20.60;13.30;;;;;;;14.90;52.50;94431.44;4976838;28;20025;-86
2022/10/11 05:16:09;;;;;;;17.85;11.45;;;;;;;14.02;52.27;94301.09;4993825;28;20040;-86
2022/10/11 05:18:35;;;;;;;22.13;13.80;;;;;;;14.25;52.38;94327.53;4994639;28;20057;-87
2022/10/11 05:21:05;;;;;;;22.83;13.30;;;;;;;14.23;52.53;94327.84;4995953;28;20464;-87
2022/10/11 05:23:32;;;;;;;18.77;13.02;;;;;;;13.87;52.17;94266.06;4977954;28;20041;-87
2022/10/11 05:25:58;;;;;;;19.30;12.25;;;;;;;13.15;52.06;94168.13;4991920;28;20022;-87
2022/10/11 05:28:26;;;;;;;23.38;11.88;;;;;;;13.38;52.50;94204.16;4992610;28;20017;-87
2022/10/11 05:30:53;;;;;;;18.13;11.80;;;;;;;14.27;52.45;94342.19;4975189;28;20563;-86
2022/10/11 05:33:25;;;;;;;18.98;12.18;;;;;;;13.62;52.54;94263.19;4992477;28;20267;-87
2022/10/11 05:35:50;;;;;;;17.52;12.00;;;;;;;14.71;52.72;94464.00;4976100;28;20028;-86
2022/10/11 05:38:36;;;;;;;18.60;12.60;;;;;;;14.50;53.57;94461.22;4982737;28;20018;-85
2022/10/11 05:41:10;;;;;;;19.83;12.90;;;;;;;13.45;53.45;94292.59;4971589;28;20057;-86
2022/10/11 05:43:43;;;;;;;18.27;13.07;;;;;;;12.86;53.58;94192.84;4971367;28;20038;-87
2022/10/11 05:46:09;;;;;;;23.73;12.30;;;;;;;13.89;53.77;94336.81;4972923;28;20024;-86
2022/10/11 05:48:38;;;;;;;22.45;13.48;;;;;;;12.71;53.47;94132.00;4973768;28;20031;-86
2022/10/11 05:51:08;;;;;;;22.88;13.02;;;;;;;14.26;53.22;94343.28;4957140;28;20154;-87
2022/10/11 05:53:56;;;;;;;19.55;12.75;;;;;;;15.01;53.33;94446.78;4961020;28;20064;-87
2022/10/11 05:56:25;;;;;;;20.10;13.25;;;;;;;13.41;52.90;94194.72;4956667;28;20114;-86
2022/10/11 05:59:19;;;;;;;20.50;14.45;;;;;;;14.56;53.09;94411.78;4966171;28;20059;-86
2022/10/11 06:01:45;;;;;;;23.80;13.38;;;;;;;14.00;53.13;94321.22;4947918;28;20027;-87
2022/10/11 06:04:10;;;;;;;21.58;13.98;;;;;;;14.33;53.29;94334.72;4966563;28;20041;-86
2022/10/11 06:06:39;;;;;;;17.63;12.60;;;;;;;15.08;52.93;94438.25;4958063;28;20109;-86
2022/10/11 06:09:13;;;;;;;17.67;12.48;;;;;;;14.01;52.60;94250.59;4966172;28;20026;-85
2022/10/11 06:11:48;;;;;;;20.43;12.27;;;;;;;15.26;52.30;94450.41;4960547;28;20372;-86
2022/10/11 06:20:59;;;;;;;19.52;12.50;;;;;;;13.85;52.08;94193.41;4964625;28;20101;-86
2022/10/11 06:23:39;;;;;;;22.48;11.70;;;;;;;13.42;52.18;94129.50;4963218;28;20040;-87
2022/10/11 06:26:13;;;;;;;15.05;11.43;;;;;;;13.59;52.04;94154.25;4970178;28;20782;-86
2022/10/11 06:28:44;;;;;;;20.48;13.55;;;;;;;14.11;52.53;94220.78;4972650;28;20036;-87
2022/10/11 06:31:45;;;;;;;;;;;;;;;;;;;;;
2022/10/11 06:37:51;;;;;;;;;;;;;;;;;;;;;
2022/10/11 06:49:33;;;;;;;18.10;10.82;;;;;;;14.44;52.16;94296.56;4931377;28;20046;-87
2022/10/11 06:52:11;;;;;;;;;;;;;;;;;;;;;
2022/10/11 06:55:13;;;;;;;;;;;;;;;;;;;;;
2022/10/11 07:01:27;;;;;;;14.27;9.13;;;;;;;14.08;52.04;94229.47;4940652;28;20102;-86
2022/10/11 07:04:32;;;;;;;17.00;9.38;;;;;;;13.63;51.58;94160.53;4980437;28;20380;-86
2022/10/11 07:07:41;;;;;;;20.73;8.48;;;;;;;15.69;52.16;94484.16;4945392;28;20445;-87
2022/10/11 07:11:08;;;;;;;;;;;;;;;;;;;;;
2022/10/11 07:17:27;;;;;;;23.30;12.43;;;;;;;14.56;52.62;94288.66;4925691;28;20469;-87
2022/10/11 07:20:45;;;;;;;19.08;11.40;;;;;;;15.65;53.16;94459.09;4930090;28;20528;-86
2022/10/11 07:23:11;;;;;;;19.48;11.10;;;;;;;15.46;53.47;94455.00;4911389;28;20090;-87
2022/10/11 07:25:40;;;;;;;19.20;10.98;;;;;;;15.49;53.54;94479.59;4954820;28;20645;-87
2022/10/11 07:28:05;;;;;;;23.45;11.77;;;;;;;14.43;53.65;94308.38;4985487;28;20393;-86
2022/10/11 07:30:44;;;;;;;20.88;11.95;;;;;;;15.63;53.52;94474.75;4986622;28;20025;-86
2022/10/11 07:33:09;;;;;;;19.40;11.75;;;;;;;15.56;53.57;94471.81;4986771;28;20037;-86
2022/10/11 07:35:35;;;;;;;19.95;10.55;;;;;;;14.10;53.69;94237.94;4968578;28;20377;-87
2022/10/11 07:38:05;;;;;;;20.08;10.98;;;;;;;15.56;53.99;94453.81;4990685;28;20045;-86
2022/10/11 07:40:32;;;;;;;25.65;12.18;;;;;;;14.75;53.89;94333.72;4971010;28;20099;-87
2022/10/11 07:42:59;;;;;;;21.83;11.98;;;;;;;15.37;53.52;94435.50;4987478;28;20040;-86
2022/10/11 07:45:27;;;;;;;20.35;12.52;;;;;;;15.26;54.06;94422.81;4982252;28;20096;-86
2022/10/11 07:47:55;;;;;;;21.55;11.07;;;;;;;15.60;53.63;94480.75;4970260;28;20030;-86
2022/10/11 07:50:21;;;;;;;18.60;11.80;;;;;;;14.59;53.60;94322.78;4970085;28;20476;-86
2022/10/11 07:53:37;;;;;;;;;;;;;;;;;;;;;
2022/10/11 07:56:15;;;;;;;23.05;11.75;;;;;;;15.65;53.50;94488.59;4974809;28;20061;-86
2022/10/11 07:58:41;;;;;;;21.95;11.75;;;;;;;13.88;53.52;94204.28;4967618;28;20030;-86
2022/10/11 08:01:07;;;;;;;20.70;11.77;;;;;;;15.70;53.40;94477.66;4987356;28;20037;-87
2022/10/11 08:03:50;;;;;;;26.10;13.43;;;;;;;14.30;53.71;94252.44;4980100;28;20185;-87
2022/10/11 08:06:42;;;;;;;21.55;12.02;;;;;;;14.44;53.31;94259.09;4979686;28;20407;-87
2022/10/11 08:09:33;;;;;;;21.42;11.27;;;;;;;15.88;53.42;94476.44;4911276;28;20595;-87
2022/10/11 08:11:59;;;;;;;23.60;12.02;;;;;;;15.34;52.94;94379.88;4899803;29;20450;-87
2022/10/11 08:18:36;;;;;;;19.08;10.68;;;;;;;16.06;52.60;94499.28;4919452;28;20046;-86
2022/10/11 08:21:43;;;;;;;18.60;11.45;;;;;;;16.04;51.60;94493.44;4902186;28;20114;-86
2022/10/11 08:24:12;;;;;;;18.80;10.50;;;;;;;14.52;51.69;94260.19;4863642;29;20048;-87
2022/10/11 08:26:38;;;;;;;17.20;10.75;;;;;;;14.40;51.97;94234.13;4894889;29;20055;-86
2022/10/11 08:29:25;;;;;;;16.27;9.82;;;;;;;14.54;51.59;94264.09;4878280;29;20153;-87
2022/10/11 08:32:15;;;;;;;19.08;10.60;;;;;;;16.08;51.81;94491.69;4897723;28;20031;-87
2022/10/11 08:35:24;;;;;;;17.30;9.82;;;;;;;14.64;51.97;94257.56;4908302;29;20049;-86
2022/10/11 08:37:52;;;;;;;17.15;10.45;;;;;;;14.02;51.78;94161.22;4908695;28;20126;-87
2022/10/11 08:40:20;;;;;;;20.00;10.77;;;;;;;15.50;52.01;94412.22;4943390;28;20075;-86
2022/10/11 08:43:01;;;;;;;17.55;10.80;;;;;;;16.09;51.62;94498.59;4987751;28;20026;-87
2022/10/11 08:45:45;;;;;;;15.27;9.23;;;;;;;15.82;52.03;94445.56;4990143;28;20033;-87
2022/10/11 08:48:20;;;;;;;20.67;10.57;;;;;;;16.16;51.38;94487.34;4985006;28;20109;-86
2022/10/11 08:50:48;;;;;;;19.15;9.85;;;;;;;15.31;51.40;94367.13;4992508;28;20026;-87
2022/10/11 08:53:31;;;;;;;14.75;9.57;;;;;;;15.29;51.75;94350.59;4969620;28;20060;-87
2022/10/11 08:55:56;;;;;;;16.92;9.73;;;;;;;14.48;51.11;94229.78;4992291;28;20489;-87
2022/10/11 08:58:47;;;;;;;16.25;10.38;;;;;;;14.77;51.40;94261.88;4968279;28;20010;-87
2022/10/11 09:01:18;;;;;;;16.75;11.13;;;;;;;15.63;51.52;94381.69;4992055;28;20054;-88
2022/10/11 09:03:46;;;;;;;18.13;10.07;;;;;;;15.71;51.61;94380.81;4988390;28;21159;-87
2022/10/11 09:06:49;;;;;;;15.43;10.50;;;;;;;16.39;51.34;94474.31;4985640;28;20037;-86
2022/10/11 09:09:31;;;;;;;16.08;10.15;;;;;;;16.36;51.84;94488.44;4987112;28;20181;-86
2022/10/11 09:12:27;;;;;;;22.88;9.77;;;;;;;16.42;51.78;94482.53;4977052;28;20025;-87
2022/10/11 09:15:06;;;;;;;;;;;;;;;16.43;51.83;94481.38;4983198;28;20068;-88
2022/10/11 09:18:22;;;;;;;19.00;11.25;;;;;;;16.39;52.17;94483.16;4945470;28;20519;-86
2022/10/11 09:21:07;;;;;;;16.60;10.93;;;;;;;16.07;51.96;94425.72;4882195;29;20047;-87
2022/10/11 09:24:01;;;;;;;17.30;10.77;;;;;;;16.51;51.81;94477.03;4948673;28;20861;-86
2022/10/11 09:26:46;;;;;;;20.88;11.32;;;;;;;16.45;52.04;94489.13;4930338;28;20505;-86
2022/10/11 09:29:49;;;;;;;16.08;9.85;;;;;;;16.49;51.48;94469.31;4947200;28;20950;-86
2022/10/11 09:32:50;;;;;;;17.60;10.80;;;;;;;15.59;52.00;94321.03;4928099;28;20090;-86
2022/10/11 09:36:11;;;;;;;18.75;10.45;;;;;;;16.60;51.26;94469.66;4935207;28;20026;-86
2022/10/11 09:39:01;;;;;;;17.13;9.43;;;;;;;14.74;51.14;94170.72;4916855;28;20088;-86
2022/10/11 09:42:18;;;;;;;19.13;11.45;;;;;;;16.21;50.91;94394.00;4948995;28;20037;-86
2022/10/11 09:45:10;;;;;;;14.13;9.50;;;;;;;15.01;50.64;94215.63;4977002;28;20049;-86
2022/10/11 09:47:35;;;;;;;19.92;11.00;;;;;;;15.59;50.62;94302.25;4969518;28;20487;-86
2022/10/11 09:50:13;;;;;;;16.98;10.55;;;;;;;15.53;50.78;94304.38;4973473;28;20033;-86
2022/10/11 09:52:57;;;;;;;17.10;10.80;;;;;;;15.19;50.95;94241.16;4971856;28;20030;-86
2022/10/11 09:55:49;;;;;;;17.05;10.38;;;;;;;16.77;50.71;94454.09;4986202;28;20117;-86
2022/10/11 09:58:24;;;;;;;15.70;10.75;;;;;;;16.77;50.56;94464.06;4984643;28;20088;-86
2022/10/11 10:01:43;;;;;;;18.90;10.85;;;;;;;15.40;50.68;94231.13;4972824;28;20157;-85
2022/10/11 10:07:45;;;;;;;20.08;10.70;;;;;;;16.93;49.80;94464.97;4991178;28;20034;-85
2022/10/11 10:10:28;;;;;;;;;;;;;;;16.87;49.72;94447.50;4975496;28;20132;-84
2022/10/11 10:12:57;;;;;;;15.15;10.20;;;;;;;16.89;50.29;94450.63;4987921;28;20489;-85
2022/10/11 10:15:29;;;;;;;15.40;10.48;;;;;;;15.70;49.86;94274.66;4989116;28;20424;-84
2022/10/11 10:17:56;;;;;;;14.32;9.45;;;;;;;15.42;49.90;94212.06;4985847;28;20455;-84
2022/10/11 10:20:30;;;;;;;14.77;9.52;;;;;;;15.83;50.59;94280.84;4970281;28;20033;-84
2022/10/11 10:26:17;;;;;;;17.73;10.02;;;;;;;16.01;50.23;94268.75;4983338;28;20068;-85
2022/10/11 10:29:04;;;;;;;16.80;10.55;;;;;;;17.11;50.71;94431.34;4989540;28;20396;-85
2022/10/11 10:31:40;;;;;;;18.95;10.18;;;;;;;17.15;50.13;94437.66;4972122;28;20045;-84
2022/10/11 10:34:32;;;;;;;19.17;10.23;;;;;;;16.55;50.32;94314.94;4985986;28;20184;-84
2022/10/11 10:37:28;;;;;;;14.65;9.80;;;;;;;17.24;49.78;94426.78;4972722;28;20045;-85
2022/10/11 10:40:09;;;;;;;16.80;10.20;;;;;;;16.81;49.55;94336.03;4979527;28;20050;-85
2022/10/11 10:42:35;;;;;;;15.75;10.45;;;;;;;16.31;49.77;94251.31;4982174;28;20165;-87
2022/10/11 10:45:01;;;;;;;22.30;11.30;;;;;;;17.35;49.94;94394.81;4970013;28;20049;-87
2022/10/11 10:47:57;;;;;;;18.08;10.60;;;;;;;16.90;50.03;94320.56;4988649;28;20021;-86
2022/10/11 10:51:03;;;;;;;19.73;12.05;;;;;;;17.45;49.19;94413.16;4988894;28;20026;-87
2022/10/11 10:54:25;;;;;;;16.92;10.75;;;;;;;16.36;49.72;94233.41;4966763;28;20111;-89
2022/10/11 10:57:28;;;;;;;16.70;10.57;;;;;;;17.45;49.95;94413.16;4983909;28;20466;-87
2022/10/11 11:00:21;;;;;;;18.98;11.02;;;;;;;17.56;49.71;94409.63;4964255;28;20107;-86
2022/10/11 11:03:40;;;;;;;;;;;;;;;;;;;;;
2022/10/11 11:06:28;;;;;;;16.95;9.88;;;;;;;17.14;49.29;94325.91;4910440;28;20062;-85
2022/10/11 11:08:59;;;;;;;15.07;9.88;;;;;;;17.39;48.90;94350.78;4969938;28;20112;-86
2022/10/11 11:12:04;;;;;;;22.90;10.80;;;;;;;17.80;49.20;94399.88;4985712;28;20018;-86
2022/10/11 11:15:06;;;;;;;16.23;9.65;;;;;;;17.83;48.98;94401.91;4985708;28;20060;-86
2022/10/11 11:18:01;;;;;;;19.17;10.18;;;;;;;17.78;48.63;94405.63;4983274;28;20018;-86
2022/10/11 11:21:02;;;;;;;19.70;10.83;;;;;;;16.69;48.32;94215.19;4983545;28;20121;-86
2022/10/11 11:23:38;;;;;;;17.30;10.82;;;;;;;16.80;48.45;94231.63;4963923;28;20474;-86
2022/10/11 11:26:29;;;;;;;17.17;10.30;;;;;;;17.07;47.86;94269.22;4972115;28;20018;-86
2022/10/11 11:29:32;;;;;;;15.65;10.68;;;;;;;17.94;47.83;94392.22;4972860;28;20504;-86
2022/10/11 11:32:59;;;;;;;19.52;11.93;;;;;;;17.97;47.92;94402.28;4972423;28;20428;-86
2022/10/11 11:35:47;;;;;;;16.83;9.95;;;;;;;17.92;48.13;94373.69;4982286;28;20515;-86
2022/10/11 11:38:27;;;;;;;12.65;9.38;;;;;;;17.63;48.54;94328.34;4988072;28;20034;-86
2022/10/11 11:40:57;;;;;;;18.63;10.60;;;;;;;17.03;48.04;94233.41;4967338;28;20042;-86
2022/10/11 11:43:31;;;;;;;33.45;12.43;;;;;;;18.06;48.25;94394.06;4982687;28;20037;-85
2022/10/11 11:46:10;;;;;;;18.70;11.05;;;;;;;16.82;48.24;94187.16;4974629;28;20022;-86
2022/10/11 11:48:42;;;;;;;23.67;10.10;;;;;;;16.47;48.14;94122.56;4969374;28;20032;-86
2022/10/11 11:51:16;;;;;;;15.45;9.77;;;;;;;16.92;47.92;94186.66;4985752;28;20109;-86
2022/10/11 11:53:54;;;;;;;16.33;9.93;;;;;;;17.95;47.48;94361.47;4985676;28;20030;-86
2022/10/11 11:56:41;;;;;;;16.13;10.43;;;;;;;17.80;47.63;94343.38;4973566;28;20033;-86
2022/10/11 11:59:20;;;;;;;15.85;10.20;;;;;;;18.07;47.72;94369.50;4969212;28;20056;-86
2022/10/11 12:01:54;;;;;;;84.50;19.65;;;;;;;16.83;47.89;94174.50;4987056;28;20037;-87
2022/10/11 12:04:27;;;;;;;21.58;12.52;;;;;;;17.31;48.06;94235.31;4989780;28;20026;-87
2022/10/11 12:07:01;;;;;;;16.75;9.57;;;;;;;18.07;47.29;94369.50;4973002;28;20025;-86
2022/10/11 12:09:28;;;;;;;17.92;10.80;;;;;;;17.77;47.47;94320.66;4988138;28;20029;-86
2022/10/11 12:11:57;;;;;;;14.52;9.98;;;;;;;17.94;47.33;94352.63;4987810;28;20109;-86
2022/10/11 12:14:26;;;;;;;20.00;10.70;;;;;;;18.01;47.70;94366.28;4970452;28;20026;-86
2022/10/11 12:17:36;;;;;;;17.15;10.65;;;;;;;16.28;47.90;94090.16;4967618;28;20021;-86
2022/10/11 12:20:15;;;;;;;17.23;10.38;;;;;;;18.03;48.03;94358.66;4927188;28;20024;-86
2022/10/11 12:22:57;;;;;;;19.58;10.65;;;;;;;18.01;47.87;94360.09;4979917;28;20080;-87
2022/10/11 12:25:39;;;;;;;18.67;11.43;;;;;;;18.03;47.32;94368.63;4970336;28;20068;-86
2022/10/11 12:29:05;;;;;;;;;;;;;;;;;;;;;
2022/10/11 12:32:16;;;;;;;19.17;10.15;;;;;;;16.83;47.69;94177.97;4950971;28;20034;-86
2022/10/11 12:34:44;;;;;;;16.65;10.63;;;;;;;16.77;47.41;94169.38;4959071;28;20133;-86
2022/10/11 12:37:18;;;;;;;15.50;10.30;;;;;;;17.68;47.47;94298.53;4966440;28;20340;-86
2022/10/11 12:40:16;;;;;;;14.35;9.98;;;;;;;18.06;47.77;94343.69;4979557;28;20133;-86
2022/10/11 12:43:23;;;;;;;15.65;10.80;;;;;;;17.91;47.78;94349.81;4984871;28;20060;-86
2022/10/11 12:45:48;;;;;;;17.50;10.55;;;;;;;16.98;47.88;94206.78;4965414;28;20417;-86
2022/10/11 12:48:51;;;;;;;14.75;9.52;;;;;;;17.83;47.63;94343.50;4968790;28;20159;-87
2022/10/11 12:51:32;;;;;;;17.73;10.25;;;;;;;17.83;47.66;94343.50;4969592;28;20109;-86
2022/10/11 12:54:28;;;;;;;23.23;10.77;;;;;;;17.34;48.03;94283.81;4968379;28;20031;-88
2022/10/11 12:57:02;;;;;;;16.75;10.40;;;;;;;17.78;47.89;94343.75;4970794;28;20038;-86
2022/10/11 12:59:30;;;;;;;16.63;10.88;;;;;;;16.94;47.83;94208.59;4986532;28;20156;-87